Flight Briefing for CPX312

Departure Arrival
Seattle-Tacoma International Airport (KSEA)
Click to view FAA NOTAMS
Washington Dulles International Airport (KIAD)
Click to view FAA NOTAMS
Departure Time Arrival Time
N/A N/A
Aircraft Distance
B767-300BDSF 2001nm
Departure METAR Arrival METAR
KSEA 192222Z 22010KT 10SM OVC015 06/03 A3004 RMK AO2 RAE20 P0000 T00560028 KIAD 192152Z 34003KT 10SM FEW180 BKN250 03/M13 A3058 RMK AO2 SLP360 T00331133
Suggested Route
SEA NORMY J90 MWH HLN DPR MCW DBQ JOT J30 APE AIR J162 MGW GIBBZ2


View recent IFR Routes data
Notes



Charts and Procedures

Charts for KSEA
No chart available
Charts for KIAD
No chart available

Ventusky Weather




{"cat":null,"equip":null,"transponder":null,"pbn":"PBN\/","maxpax":null,"oew":"0.0","mzfw":"0.0","mtow":"0.0","mlw":"0.0","maxfuel":"0.0"} DEVELOPMENTAL TEST USE ONLY